sensor_id;sensor_type;location;lat;lon;timestamp;temperature;humidity
36790;DHT22;22740;52.182;8.780;2024-03-06T00:04:05;4.90;99.90
36790;DHT22;22740;52.182;8.780;2024-03-06T00:10:07;4.90;99.90
36790;DHT22;22740;52.182;8.780;2024-03-06T00:16:09;4.80;99.90
36790;DHT22;22740;52.182;8.780;2024-03-06T00:22:10;4.80;99.90
36790;DHT22;22740;52.182;8.780;2024-03-06T00:28:12;4.70;99.90
36790;DHT22;22740;52.182;8.780;2024-03-06T00:34:14;4.70;99.90
36790;DHT22;22740;52.182;8.780;2024-03-06T00:40:16;4.70;99.90
36790;DHT22;22740;52.182;8.780;2024-03-06T00:46:18;4.80;99.90
36790;DHT22;22740;52.182;8.780;2024-03-06T00:52:20;4.80;99.90
36790;DHT22;22740;52.182;8.780;2024-03-06T00:58:22;4.80;99.90
36790;DHT22;22740;52.182;8.780;2024-03-06T01:04:24;4.80;99.90
36790;DHT22;22740;52.182;8.780;2024-03-06T01:10:25;4.80;99.90
36790;DHT22;22740;52.182;8.780;2024-03-06T01:16:27;4.80;99.90
36790;DHT22;22740;52.182;8.780;2024-03-06T01:22:29;4.80;99.90
36790;DHT22;22740;52.182;8.780;2024-03-06T01:28:31;4.80;99.90
36790;DHT22;22740;52.182;8.780;2024-03-06T01:34:33;4.80;99.90
36790;DHT22;22740;52.182;8.780;2024-03-06T01:40:35;4.90;99.90
36790;DHT22;22740;52.182;8.780;2024-03-06T01:46:37;4.80;99.90
36790;DHT22;22740;52.182;8.780;2024-03-06T01:52:40;4.80;99.90
36790;DHT22;22740;52.182;8.780;2024-03-06T01:58:45;4.80;99.90
36790;DHT22;22740;52.182;8.780;2024-03-06T02:04:48;4.80;99.90
36790;DHT22;22740;52.182;8.780;2024-03-06T02:10:50;4.80;99.90
36790;DHT22;22740;52.182;8.780;2024-03-06T02:16:52;4.80;99.90
36790;DHT22;22740;52.182;8.780;2024-03-06T02:22:53;4.80;99.90
36790;DHT22;22740;52.182;8.780;2024-03-06T02:28:56;4.70;99.90
36790;DHT22;22740;52.182;8.780;2024-03-06T02:34:58;4.80;99.90
36790;DHT22;22740;52.182;8.780;2024-03-06T02:41:00;4.80;99.90
36790;DHT22;22740;52.182;8.780;2024-03-06T02:47:02;4.80;99.90
36790;DHT22;22740;52.182;8.780;2024-03-06T02:53:04;4.70;99.90
36790;DHT22;22740;52.182;8.780;2024-03-06T02:59:07;4.80;99.90
36790;DHT22;22740;52.182;8.780;2024-03-06T03:05:09;4.80;99.90
36790;DHT22;22740;52.182;8.780;2024-03-06T03:11:11;4.80;99.90
36790;DHT22;22740;52.182;8.780;2024-03-06T03:17:13;4.80;99.90
36790;DHT22;22740;52.182;8.780;2024-03-06T03:23:16;4.80;99.90
36790;DHT22;22740;52.182;8.780;2024-03-06T03:29:24;4.80;99.90
36790;DHT22;22740;52.182;8.780;2024-03-06T03:35:25;4.90;99.90
36790;DHT22;22740;52.182;8.780;2024-03-06T03:41:27;4.80;99.90
36790;DHT22;22740;52.182;8.780;2024-03-06T03:47:29;4.80;99.90
36790;DHT22;22740;52.182;8.780;2024-03-06T03:53:31;4.90;99.90
36790;DHT22;22740;52.182;8.780;2024-03-06T03:59:33;4.90;99.90
36790;DHT22;22740;52.182;8.780;2024-03-06T04:05:34;4.80;99.90
36790;DHT22;22740;52.182;8.780;2024-03-06T04:11:37;4.80;99.90
36790;DHT22;22740;52.182;8.780;2024-03-06T04:17:39;4.70;99.90
36790;DHT22;22740;52.182;8.780;2024-03-06T04:23:43;4.80;99.90
36790;DHT22;22740;52.182;8.780;2024-03-06T04:29:46;4.80;99.90
36790;DHT22;22740;52.182;8.780;2024-03-06T04:35:48;4.80;99.90
36790;DHT22;22740;52.182;8.780;2024-03-06T04:41:49;4.80;99.90
36790;DHT22;22740;52.182;8.780;2024-03-06T04:47:51;4.80;99.90
36790;DHT22;22740;52.182;8.780;2024-03-06T04:53:53;4.90;99.90
36790;DHT22;22740;52.182;8.780;2024-03-06T04:59:55;4.90;99.90
36790;DHT22;22740;52.182;8.780;2024-03-06T05:05:57;4.90;99.90
36790;DHT22;22740;52.182;8.780;2024-03-06T05:12:16;4.90;99.90
36790;DHT22;22740;52.182;8.780;2024-03-06T05:18:36;4.90;99.90
36790;DHT22;22740;52.182;8.780;2024-03-06T05:24:55;4.90;99.90
36790;DHT22;22740;52.182;8.780;2024-03-06T05:31:19;4.90;99.90
36790;DHT22;22740;52.182;8.780;2024-03-06T05:37:38;4.90;99.90
36790;DHT22;22740;52.182;8.780;2024-03-06T05:43:57;4.90;99.90
36790;DHT22;22740;52.182;8.780;2024-03-06T05:50:16;4.90;99.90
36790;DHT22;22740;52.182;8.780;2024-03-06T05:56:35;4.90;99.90
36790;DHT22;22740;52.182;8.780;2024-03-06T06:02:55;5.00;99.90
36790;DHT22;22740;52.182;8.780;2024-03-06T06:08:57;5.00;99.90
36790;DHT22;22740;52.182;8.780;2024-03-06T06:14:59;5.00;99.90
36790;DHT22;22740;52.182;8.780;2024-03-06T06:21:01;5.00;99.90
36790;DHT22;22740;52.182;8.780;2024-03-06T06:27:03;5.10;99.90
36790;DHT22;22740;52.182;8.780;2024-03-06T06:33:05;5.10;99.90
36790;DHT22;22740;52.182;8.780;2024-03-06T06:39:07;5.10;99.90
36790;DHT22;22740;52.182;8.780;2024-03-06T06:45:09;5.10;99.90
36790;DHT22;22740;52.182;8.780;2024-03-06T06:51:11;5.10;99.90
36790;DHT22;22740;52.182;8.780;2024-03-06T06:57:13;5.10;99.90
36790;DHT22;22740;52.182;8.780;2024-03-06T07:03:15;5.20;99.90
36790;DHT22;22740;52.182;8.780;2024-03-06T07:09:17;5.20;99.90
36790;DHT22;22740;52.182;8.780;2024-03-06T07:15:20;5.30;99.90
36790;DHT22;22740;52.182;8.780;2024-03-06T07:21:22;5.40;99.90
36790;DHT22;22740;52.182;8.780;2024-03-06T07:27:23;5.40;99.90
36790;DHT22;22740;52.182;8.780;2024-03-06T07:33:25;5.40;99.90
36790;DHT22;22740;52.182;8.780;2024-03-06T07:39:27;5.40;99.90
36790;DHT22;22740;52.182;8.780;2024-03-06T07:45:29;5.40;99.90
36790;DHT22;22740;52.182;8.780;2024-03-06T07:51:34;5.40;99.90
36790;DHT22;22740;52.182;8.780;2024-03-06T07:57:37;5.40;99.90
36790;DHT22;22740;52.182;8.780;2024-03-06T08:03:39;5.50;99.90
36790;DHT22;22740;52.182;8.780;2024-03-06T08:09:43;5.50;99.90
36790;DHT22;22740;52.182;8.780;2024-03-06T08:15:44;5.50;99.90
36790;DHT22;22740;52.182;8.780;2024-03-06T08:21:47;5.50;99.90
36790;DHT22;22740;52.182;8.780;2024-03-06T08:27:48;5.60;99.90
36790;DHT22;22740;52.182;8.780;2024-03-06T08:33:50;5.60;99.90
36790;DHT22;22740;52.182;8.780;2024-03-06T08:39:52;5.70;99.90
36790;DHT22;22740;52.182;8.780;2024-03-06T08:45:54;5.80;99.90
36790;DHT22;22740;52.182;8.780;2024-03-06T08:51:56;5.90;99.90
36790;DHT22;22740;52.182;8.780;2024-03-06T08:57:58;6.00;99.90
36790;DHT22;22740;52.182;8.780;2024-03-06T09:04:03;6.10;99.90
36790;DHT22;22740;52.182;8.780;2024-03-06T09:10:05;6.20;99.90
36790;DHT22;22740;52.182;8.780;2024-03-06T09:16:10;6.40;99.90
36790;DHT22;22740;52.182;8.780;2024-03-06T09:22:11;6.50;99.90
36790;DHT22;22740;52.182;8.780;2024-03-06T09:28:13;6.40;99.90
36790;DHT22;22740;52.182;8.780;2024-03-06T09:34:15;6.30;99.90
36790;DHT22;22740;52.182;8.780;2024-03-06T09:40:22;6.40;99.90
36790;DHT22;22740;52.182;8.780;2024-03-06T09:46:25;6.40;99.90
36790;DHT22;22740;52.182;8.780;2024-03-06T09:52:28;6.40;99.90
36790;DHT22;22740;52.182;8.780;2024-03-06T09:58:31;6.40;99.90
36790;DHT22;22740;52.182;8.780;2024-03-06T10:04:33;6.50;99.90
36790;DHT22;22740;52.182;8.780;2024-03-06T10:10:38;6.60;99.90
36790;DHT22;22740;52.182;8.780;2024-03-06T10:16:54;6.70;99.90
36790;DHT22;22740;52.182;8.780;2024-03-06T10:22:55;6.80;99.90
36790;DHT22;22740;52.182;8.780;2024-03-06T10:29:00;6.70;99.90
36790;DHT22;22740;52.182;8.780;2024-03-06T10:35:04;6.80;99.90
36790;DHT22;22740;52.182;8.780;2024-03-06T10:41:08;6.90;99.90
36790;DHT22;22740;52.182;8.780;2024-03-06T10:47:16;7.10;99.90
36790;DHT22;22740;52.182;8.780;2024-03-06T10:53:20;7.10;99.90
36790;DHT22;22740;52.182;8.780;2024-03-06T10:59:26;7.20;99.90
36790;DHT22;22740;52.182;8.780;2024-03-06T11:05:31;7.00;99.90
36790;DHT22;22740;52.182;8.780;2024-03-06T11:11:53;7.00;99.90
36790;DHT22;22740;52.182;8.780;2024-03-06T11:17:56;6.90;99.90
36790;DHT22;22740;52.182;8.780;2024-03-06T11:24:14;7.00;99.90
36790;DHT22;22740;52.182;8.780;2024-03-06T11:30:19;7.10;99.90
36790;DHT22;22740;52.182;8.780;2024-03-06T11:36:27;7.10;99.90
36790;DHT22;22740;52.182;8.780;2024-03-06T11:42:33;7.20;99.90
36790;DHT22;22740;52.182;8.780;2024-03-06T11:48:38;7.30;99.90
36790;DHT22;22740;52.182;8.780;2024-03-06T11:54:40;7.30;99.90
36790;DHT22;22740;52.182;8.780;2024-03-06T12:00:42;7.40;99.90
36790;DHT22;22740;52.182;8.780;2024-03-06T12:06:47;7.80;99.90
36790;DHT22;22740;52.182;8.780;2024-03-06T12:12:49;7.90;99.90
36790;DHT22;22740;52.182;8.780;2024-03-06T12:18:55;7.90;99.90
36790;DHT22;22740;52.182;8.780;2024-03-06T12:24:59;8.20;99.90
36790;DHT22;22740;52.182;8.780;2024-03-06T12:31:03;8.40;99.90
36790;DHT22;22740;52.182;8.780;2024-03-06T12:37:11;8.20;99.90
36790;DHT22;22740;52.182;8.780;2024-03-06T12:43:13;8.30;99.90
36790;DHT22;22740;52.182;8.780;2024-03-06T12:49:16;8.40;99.90
36790;DHT22;22740;52.182;8.780;2024-03-06T12:55:18;8.50;99.90
36790;DHT22;22740;52.182;8.780;2024-03-06T13:01:20;8.60;99.90
36790;DHT22;22740;52.182;8.780;2024-03-06T13:07:22;8.50;99.90
36790;DHT22;22740;52.182;8.780;2024-03-06T13:13:24;8.30;99.90
36790;DHT22;22740;52.182;8.780;2024-03-06T13:19:27;8.40;99.90
36790;DHT22;22740;52.182;8.780;2024-03-06T13:25:29;8.60;99.90
36790;DHT22;22740;52.182;8.780;2024-03-06T13:31:31;8.80;99.90
36790;DHT22;22740;52.182;8.780;2024-03-06T13:37:35;9.20;99.90
36790;DHT22;22740;52.182;8.780;2024-03-06T13:43:37;9.00;99.90
36790;DHT22;22740;52.182;8.780;2024-03-06T13:49:40;8.80;99.90
36790;DHT22;22740;52.182;8.780;2024-03-06T13:55:42;8.70;99.90
36790;DHT22;22740;52.182;8.780;2024-03-06T14:01:44;8.80;99.90
36790;DHT22;22740;52.182;8.780;2024-03-06T14:07:45;8.70;99.90
36790;DHT22;22740;52.182;8.780;2024-03-06T14:13:47;8.80;99.90
36790;DHT22;22740;52.182;8.780;2024-03-06T14:19:49;8.80;99.90
36790;DHT22;22740;52.182;8.780;2024-03-06T14:25:51;9.00;99.90
36790;DHT22;22740;52.182;8.780;2024-03-06T14:31:53;9.10;99.90
36790;DHT22;22740;52.182;8.780;2024-03-06T14:37:55;9.00;99.90
36790;DHT22;22740;52.182;8.780;2024-03-06T14:43:57;8.90;99.90
36790;DHT22;22740;52.182;8.780;2024-03-06T14:49:59;8.90;99.90
36790;DHT22;22740;52.182;8.780;2024-03-06T14:56:00;8.90;99.90
36790;DHT22;22740;52.182;8.780;2024-03-06T15:02:03;9.10;99.90
36790;DHT22;22740;52.182;8.780;2024-03-06T15:08:05;8.90;99.90
36790;DHT22;22740;52.182;8.780;2024-03-06T15:14:08;9.10;99.90
36790;DHT22;22740;52.182;8.780;2024-03-06T15:20:10;8.60;99.90
36790;DHT22;22740;52.182;8.780;2024-03-06T15:26:12;8.50;99.90
36790;DHT22;22740;52.182;8.780;2024-03-06T15:32:14;8.80;99.90
36790;DHT22;22740;52.182;8.780;2024-03-06T15:38:16;8.70;99.90
36790;DHT22;22740;52.182;8.780;2024-03-06T15:44:19;8.40;99.90
36790;DHT22;22740;52.182;8.780;2024-03-06T15:50:21;8.40;99.90
36790;DHT22;22740;52.182;8.780;2024-03-06T15:56:23;8.40;99.90
36790;DHT22;22740;52.182;8.780;2024-03-06T16:02:25;8.40;99.90
36790;DHT22;22740;52.182;8.780;2024-03-06T16:08:27;8.10;99.90
36790;DHT22;22740;52.182;8.780;2024-03-06T16:14:31;7.80;99.90
36790;DHT22;22740;52.182;8.780;2024-03-06T16:20:33;7.70;99.90
36790;DHT22;22740;52.182;8.780;2024-03-06T16:26:35;7.60;99.90
36790;DHT22;22740;52.182;8.780;2024-03-06T16:32:38;7.60;99.90
36790;DHT22;22740;52.182;8.780;2024-03-06T16:38:40;7.70;99.90
36790;DHT22;22740;52.182;8.780;2024-03-06T16:44:42;7.60;99.90
36790;DHT22;22740;52.182;8.780;2024-03-06T16:50:44;7.60;99.90
36790;DHT22;22740;52.182;8.780;2024-03-06T16:56:46;7.50;99.90
36790;DHT22;22740;52.182;8.780;2024-03-06T17:02:48;7.50;99.90
36790;DHT22;22740;52.182;8.780;2024-03-06T17:08:50;7.50;99.90
36790;DHT22;22740;52.182;8.780;2024-03-06T17:14:52;7.50;99.90
36790;DHT22;22740;52.182;8.780;2024-03-06T17:20:54;7.40;99.90
36790;DHT22;22740;52.182;8.780;2024-03-06T17:26:56;7.30;99.90
36790;DHT22;22740;52.182;8.780;2024-03-06T17:32:58;7.30;99.90
36790;DHT22;22740;52.182;8.780;2024-03-06T17:39:00;7.30;99.90
36790;DHT22;22740;52.182;8.780;2024-03-06T17:45:01;7.40;99.90
36790;DHT22;22740;52.182;8.780;2024-03-06T17:51:03;7.40;99.90
36790;DHT22;22740;52.182;8.780;2024-03-06T17:57:05;7.40;99.90
36790;DHT22;22740;52.182;8.780;2024-03-06T18:03:07;7.40;99.90
36790;DHT22;22740;52.182;8.780;2024-03-06T18:09:09;7.40;99.90
36790;DHT22;22740;52.182;8.780;2024-03-06T18:15:16;7.30;99.90
36790;DHT22;22740;52.182;8.780;2024-03-06T18:21:18;7.20;99.90
36790;DHT22;22740;52.182;8.780;2024-03-06T18:27:20;7.20;99.90
36790;DHT22;22740;52.182;8.780;2024-03-06T18:33:22;7.20;99.90
36790;DHT22;22740;52.182;8.780;2024-03-06T18:39:24;7.20;99.90
36790;DHT22;22740;52.182;8.780;2024-03-06T18:45:26;7.20;99.90
36790;DHT22;22740;52.182;8.780;2024-03-06T18:51:28;7.20;99.90
36790;DHT22;22740;52.182;8.780;2024-03-06T18:57:30;7.20;99.90
36790;DHT22;22740;52.182;8.780;2024-03-06T19:03:33;7.20;99.90
36790;DHT22;22740;52.182;8.780;2024-03-06T19:09:34;7.20;99.90
36790;DHT22;22740;52.182;8.780;2024-03-06T19:15:36;7.20;99.90
36790;DHT22;22740;52.182;8.780;2024-03-06T19:21:38;7.20;99.90
36790;DHT22;22740;52.182;8.780;2024-03-06T19:27:42;7.10;99.90
36790;DHT22;22740;52.182;8.780;2024-03-06T19:33:44;7.00;99.90
36790;DHT22;22740;52.182;8.780;2024-03-06T19:39:46;7.00;99.90
36790;DHT22;22740;52.182;8.780;2024-03-06T19:45:48;7.00;99.90
36790;DHT22;22740;52.182;8.780;2024-03-06T19:51:50;6.90;99.90
36790;DHT22;22740;52.182;8.780;2024-03-06T19:57:53;6.70;99.90
36790;DHT22;22740;52.182;8.780;2024-03-06T20:03:55;6.60;99.90
36790;DHT22;22740;52.182;8.780;2024-03-06T20:09:58;6.60;99.90
36790;DHT22;22740;52.182;8.780;2024-03-06T20:16:00;6.60;99.90
36790;DHT22;22740;52.182;8.780;2024-03-06T20:22:02;6.50;99.90
36790;DHT22;22740;52.182;8.780;2024-03-06T20:28:05;6.40;99.90
36790;DHT22;22740;52.182;8.780;2024-03-06T20:34:09;6.30;99.90
36790;DHT22;22740;52.182;8.780;2024-03-06T20:40:11;6.40;99.90
36790;DHT22;22740;52.182;8.780;2024-03-06T20:46:13;6.10;99.90
36790;DHT22;22740;52.182;8.780;2024-03-06T20:52:15;6.10;99.90
36790;DHT22;22740;52.182;8.780;2024-03-06T20:58:17;6.00;99.90
36790;DHT22;22740;52.182;8.780;2024-03-06T21:04:19;6.00;99.90
36790;DHT22;22740;52.182;8.780;2024-03-06T21:10:21;5.90;99.90
36790;DHT22;22740;52.182;8.780;2024-03-06T21:16:23;5.80;99.90
36790;DHT22;22740;52.182;8.780;2024-03-06T21:22:25;5.70;99.90
36790;DHT22;22740;52.182;8.780;2024-03-06T21:28:27;5.60;99.90
36790;DHT22;22740;52.182;8.780;2024-03-06T21:34:30;5.50;99.90
36790;DHT22;22740;52.182;8.780;2024-03-06T21:40:32;5.50;99.90
36790;DHT22;22740;52.182;8.780;2024-03-06T21:46:33;5.40;99.90
36790;DHT22;22740;52.182;8.780;2024-03-06T21:52:36;5.30;99.90
36790;DHT22;22740;52.182;8.780;2024-03-06T21:58:38;5.30;99.90
36790;DHT22;22740;52.182;8.780;2024-03-06T22:04:39;5.20;99.90
36790;DHT22;22740;52.182;8.780;2024-03-06T22:10:41;5.10;99.90
36790;DHT22;22740;52.182;8.780;2024-03-06T22:16:43;5.00;99.90
36790;DHT22;22740;52.182;8.780;2024-03-06T22:22:48;5.00;99.90
36790;DHT22;22740;52.182;8.780;2024-03-06T22:28:50;4.90;99.90
36790;DHT22;22740;52.182;8.780;2024-03-06T22:34:52;4.80;99.90
36790;DHT22;22740;52.182;8.780;2024-03-06T22:40:54;4.70;99.90
36790;DHT22;22740;52.182;8.780;2024-03-06T22:46:56;4.60;99.90
36790;DHT22;22740;52.182;8.780;2024-03-06T22:52:59;4.50;99.90
36790;DHT22;22740;52.182;8.780;2024-03-06T22:59:03;4.30;99.90
36790;DHT22;22740;52.182;8.780;2024-03-06T23:05:05;4.20;99.90
36790;DHT22;22740;52.182;8.780;2024-03-06T23:11:10;4.30;99.90
36790;DHT22;22740;52.182;8.780;2024-03-06T23:17:12;4.00;99.90
36790;DHT22;22740;52.182;8.780;2024-03-06T23:23:14;3.90;99.90
36790;DHT22;22740;52.182;8.780;2024-03-06T23:29:16;4.00;99.90
36790;DHT22;22740;52.182;8.780;2024-03-06T23:35:18;4.30;99.90
36790;DHT22;22740;52.182;8.780;2024-03-06T23:41:20;4.50;99.90
36790;DHT22;22740;52.182;8.780;2024-03-06T23:47:22;4.50;99.90
36790;DHT22;22740;52.182;8.780;2024-03-06T23:53:24;4.50;99.90
36790;DHT22;22740;52.182;8.780;2024-03-06T23:59:26;4.50;99.90
